Time;durP1;ratioP1;P1;durP2;ratioP2;P2;SDS_P1;SDS_P2;PMS_P1;PMS_P2;Temp;Humidity;BMP_temperature;BMP_pressure;BME280_temperature;BME280_humidity;BME280_pressure;Samples;Min_cycle;Max_cycle;Signal;HPM_P1;HPM_P2
2021/05/18 00:00:30;;;;;;;15.00;8.57;;;11.10;97.40;;;;;;5071446;28;20028;-84
2021/05/18 00:03:15;;;;;;;12.88;8.20;;;11.00;97.40;;;;;;5061515;28;20012;-84
2021/05/18 00:05:44;;;;;;;14.48;8.65;;;11.10;97.50;;;;;;5062429;28;20056;-84
2021/05/18 00:08:12;;;;;;;16.73;8.85;;;11.10;97.50;;;;;;5078006;28;20544;-83
2021/05/18 00:13:26;;;;;;;13.48;7.88;;;11.00;97.50;;;;;;5093745;28;20043;-84
2021/05/18 00:15:55;;;;;;;15.23;8.98;;;11.00;97.50;;;;;;5057376;28;20067;-84
2021/05/18 00:18:21;;;;;;;15.15;8.52;;;11.00;97.40;;;;;;5084668;28;20073;-84
2021/05/18 00:20:47;;;;;;;14.48;9.55;;;11.00;97.50;;;;;;5049577;28;20066;-84
2021/05/18 00:23:13;;;;;;;13.50;8.85;;;11.00;97.50;;;;;;5057842;28;20028;-84
2021/05/18 00:25:40;;;;;;;15.77;9.52;;;10.90;97.40;;;;;;5064434;28;20119;-84
2021/05/18 00:28:06;;;;;;;14.30;8.77;;;10.90;97.30;;;;;;5061869;28;20040;-83
2021/05/18 00:30:32;;;;;;;15.18;9.15;;;10.90;97.30;;;;;;5093317;28;20433;-83
2021/05/18 00:32:59;;;;;;;14.52;8.73;;;10.90;97.40;;;;;;5063889;28;20017;-84
2021/05/18 00:35:25;;;;;;;15.07;8.90;;;10.90;97.30;;;;;;5068520;28;20393;-84
2021/05/18 00:37:51;;;;;;;13.85;9.65;;;10.90;97.20;;;;;;5046662;28;20091;-84
2021/05/18 00:40:19;;;;;;;16.88;9.48;;;10.80;97.50;;;;;;5043683;28;20386;-84
2021/05/18 00:42:50;;;;;;;15.23;9.57;;;10.80;97.90;;;;;;5074576;28;20023;-85
2021/05/18 00:45:25;;;;;;;17.45;9.23;;;10.80;97.60;;;;;;5074345;28;20378;-84
2021/05/18 00:47:51;;;;;;;17.48;9.18;;;10.80;97.90;;;;;;5074301;28;20062;-83
2021/05/18 00:50:17;;;;;;;12.15;8.48;;;10.80;98.20;;;;;;5074466;28;20032;-84
2021/05/18 00:52:43;;;;;;;16.80;9.20;;;10.80;98.70;;;;;;5058269;28;20392;-84
2021/05/18 00:55:19;;;;;;;16.70;9.63;;;10.80;98.70;;;;;;5085112;28;20023;-84
2021/05/18 01:00:29;;;;;;;16.60;9.55;;;10.80;98.20;;;;;;5097706;28;20186;-84
2021/05/18 01:02:54;;;;;;;15.10;9.05;;;10.80;98.10;;;;;;5058842;28;20016;-84
2021/05/18 01:05:21;;;;;;;14.93;8.82;;;10.80;98.00;;;;;;5057228;28;20057;-84
2021/05/18 01:07:49;;;;;;;15.05;8.85;;;10.80;98.00;;;;;;5074944;28;20056;-84
2021/05/18 01:10:16;;;;;;;13.20;8.63;;;10.80;98.10;;;;;;5058262;28;20130;-84
2021/05/18 01:12:43;;;;;;;14.05;9.02;;;10.80;98.10;;;;;;5077914;28;20060;-84
2021/05/18 01:15:10;;;;;;;12.75;8.85;;;10.80;98.20;;;;;;5085454;28;20080;-83
2021/05/18 01:17:36;;;;;;;17.25;10.07;;;10.80;98.20;;;;;;5084869;28;20084;-84
2021/05/18 01:20:10;;;;;;;13.73;9.88;;;10.80;98.20;;;;;;5063694;28;20110;-84
2021/05/18 01:22:37;;;;;;;14.50;9.57;;;10.80;98.20;;;;;;5073096;28;20028;-84
2021/05/18 01:25:05;;;;;;;13.88;9.07;;;10.80;98.30;;;;;;5074223;28;20052;-84
2021/05/18 01:30:54;;;;;;;14.63;9.35;;;10.90;98.30;;;;;;5076795;28;20123;-84
2021/05/18 01:33:19;;;;;;;14.18;8.68;;;10.90;98.30;;;;;;5067047;28;20034;-84
2021/05/18 01:35:45;;;;;;;10.63;8.48;;;10.90;98.30;;;;;;5077736;28;20107;-84
2021/05/18 01:38:14;;;;;;;14.20;8.38;;;10.90;98.40;;;;;;5056225;28;20020;-84
2021/05/18 01:43:14;;;;;;;14.00;8.85;;;10.90;98.60;;;;;;5076887;28;20119;-84
2021/05/18 01:45:42;;;;;;;12.77;9.02;;;10.90;98.30;;;;;;5097286;28;20024;-84
2021/05/18 01:48:13;;;;;;;14.30;9.68;;;10.90;98.40;;;;;;5089515;28;20039;-84
2021/05/18 01:50:41;;;;;;;17.42;9.93;;;10.90;98.40;;;;;;5078227;28;20022;-84
2021/05/18 01:53:08;;;;;;;15.02;9.32;;;10.90;98.50;;;;;;5073997;28;20024;-84
2021/05/18 01:58:19;;;;;;;15.32;9.95;;;10.90;98.50;;;;;;5103982;28;20106;-84
2021/05/18 02:00:45;;;;;;;15.77;9.85;;;10.90;98.50;;;;;;5073815;28;20489;-84
2021/05/18 02:03:11;;;;;;;13.90;9.80;;;10.90;98.50;;;;;;5077629;28;20032;-84
2021/05/18 02:05:40;;;;;;;15.05;10.75;;;10.90;98.60;;;;;;5060627;28;20512;-85
2021/05/18 02:08:09;;;;;;;17.20;10.00;;;10.90;98.60;;;;;;5077001;28;20077;-84
2021/05/18 02:10:34;;;;;;;14.02;9.77;;;11.00;98.60;;;;;;5077206;28;20067;-85
2021/05/18 02:13:00;;;;;;;14.80;10.07;;;11.00;98.60;;;;;;5063159;28;20070;-84
2021/05/18 02:15:38;;;;;;;13.98;9.75;;;11.00;98.70;;;;;;5060149;28;20118;-84
2021/05/18 02:18:28;;;;;;;14.95;10.70;;;11.00;98.60;;;;;;5061729;28;20020;-84
2021/05/18 02:26:14;;;;;;;15.25;9.60;;;11.00;98.70;;;;;;5086782;28;20077;-84
2021/05/18 02:28:40;;;;;;;12.68;8.65;;;11.00;98.70;;;;;;5075408;28;20024;-85
2021/05/18 02:31:06;;;;;;;13.63;8.30;;;11.00;98.60;;;;;;5063093;28;20027;-85
2021/05/18 02:33:32;;;;;;;14.68;9.35;;;11.00;98.50;;;;;;5093609;28;20016;-84
2021/05/18 02:35:58;;;;;;;14.00;8.77;;;11.00;98.60;;;;;;5086222;28;20446;-84
2021/05/18 02:38:23;;;;;;;14.43;9.27;;;10.90;98.70;;;;;;5061388;28;20111;-83
2021/05/18 02:40:49;;;;;;;12.05;9.25;;;10.90;98.70;;;;;;5056573;28;20082;-84
2021/05/18 02:43:20;;;;;;;15.65;9.95;;;10.90;98.70;;;;;;5089087;28;20024;-84
2021/05/18 02:51:14;;;;;;;14.65;9.32;;;11.00;98.90;;;;;;5088016;28;20073;-84
2021/05/18 02:53:40;;;;;;;14.02;9.98;;;11.00;99.00;;;;;;5082042;28;20413;-83
2021/05/18 02:58:37;;;;;;;14.90;9.45;;;11.00;99.00;;;;;;5107094;28;20076;-84
2021/05/18 03:01:03;;;;;;;15.13;9.07;;;11.00;99.00;;;;;;5060878;28;20471;-83
2021/05/18 03:03:29;;;;;;;14.38;9.25;;;11.00;99.00;;;;;;5059426;28;20082;-84
2021/05/18 03:05:55;;;;;;;15.65;9.70;;;11.00;99.00;;;;;;5058606;28;20044;-84
2021/05/18 03:08:20;;;;;;;14.50;9.40;;;11.00;99.00;;;;;;5076068;28;20504;-84
2021/05/18 03:10:47;;;;;;;13.73;9.20;;;11.00;99.00;;;;;;5075971;28;20028;-84
2021/05/18 03:13:13;;;;;;;14.50;9.07;;;11.00;99.00;;;;;;5082949;28;20066;-83
2021/05/18 03:15:39;;;;;;;13.32;8.73;;;11.00;99.00;;;;;;5066088;28;20035;-84
2021/05/18 03:18:04;;;;;;;13.73;8.82;;;11.00;99.10;;;;;;5063953;28;20023;-84
2021/05/18 03:20:31;;;;;;;13.68;9.85;;;11.00;99.10;;;;;;5072330;28;20513;-84
2021/05/18 03:22:56;;;;;;;14.80;9.07;;;11.00;99.30;;;;;;5092220;28;20392;-83
2021/05/18 03:25:23;;;;;;;13.15;8.95;;;11.00;99.10;;;;;;5075746;28;20028;-84
2021/05/18 03:27:48;;;;;;;14.70;9.13;;;11.00;99.10;;;;;;5088984;28;20529;-84
2021/05/18 03:35:32;;;;;;;17.83;10.85;;;11.00;99.20;;;;;;5078625;28;20397;-83
2021/05/18 03:38:00;;;;;;;13.80;9.50;;;11.00;99.20;;;;;;5079368;28;20103;-84
2021/05/18 03:40:28;;;;;;;13.85;9.98;;;10.90;99.20;;;;;;5072415;28;20024;-83
2021/05/18 03:43:04;;;;;;;13.63;10.18;;;10.90;99.20;;;;;;5048407;28;20043;-84
2021/05/18 03:45:33;;;;;;;18.75;11.73;;;10.90;99.20;;;;;;5061865;28;20024;-84
2021/05/18 04:04:27;;;;;;;20.48;13.60;;;10.90;99.40;;;;;;5089540;22;20408;-83
2021/05/18 04:17:44;;;;;;;16.48;12.32;;;10.90;99.50;;;;;;5072627;28;20374;-82
2021/05/18 05:00:49;;;;;;;24.33;17.25;;;11.10;99.90;;;;;;5063447;28;20051;-82
2021/05/18 05:03:52;;;;;;;21.60;16.65;;;11.10;99.90;;;;;;5042595;28;20474;-83
2021/05/18 05:06:16;;;;;;;25.23;19.65;;;11.20;99.90;;;;;;5061012;28;20413;-83
2021/05/18 05:08:58;;;;;;;22.75;17.65;;;11.10;99.90;;;;;;5043157;28;20020;-83
2021/05/18 05:14:17;;;;;;;22.05;16.90;;;11.10;99.90;;;;;;5050743;28;20175;-83
2021/05/18 05:16:43;;;;;;;22.17;17.50;;;11.10;99.90;;;;;;5052457;28;20021;-83
2021/05/18 05:19:09;;;;;;;26.80;20.27;;;11.10;99.90;;;;;;5048322;28;20123;-82
2021/05/18 05:21:35;;;;;;;25.58;19.73;;;11.00;99.90;;;;;;5024071;28;20108;-82
2021/05/18 05:24:01;;;;;;;25.88;19.98;;;11.00;99.90;;;;;;5029673;28;20033;-83
2021/05/18 05:26:29;;;;;;;34.40;22.75;;;11.00;99.90;;;;;;5045783;28;20048;-82
2021/05/18 05:28:55;;;;;;;30.77;22.75;;;11.00;99.90;;;;;;5060414;28;20020;-82
2021/05/18 05:31:21;;;;;;;25.60;20.05;;;11.00;99.90;;;;;;5034075;28;20036;-83
2021/05/18 05:33:46;;;;;;;26.92;20.63;;;11.00;99.90;;;;;;5044327;28;20021;-83
2021/05/18 05:36:12;;;;;;;24.08;18.10;;;11.00;99.90;;;;;;5055150;28;20021;-84
2021/05/18 05:38:38;;;;;;;25.75;19.73;;;11.00;99.90;;;;;;5039299;28;20397;-83
2021/05/18 05:41:04;;;;;;;27.42;19.95;;;11.00;99.90;;;;;;5047476;28;20044;-84
2021/05/18 05:43:30;;;;;;;25.70;19.75;;;11.10;99.90;;;;;;5028699;28;20021;-82
2021/05/18 05:45:56;;;;;;;33.83;22.60;;;11.10;99.90;;;;;;5017512;28;20099;-82
2021/05/18 05:48:21;;;;;;;25.92;19.92;;;11.10;99.90;;;;;;5046933;28;20024;-82
2021/05/18 05:50:48;;;;;;;31.58;22.80;;;11.10;99.90;;;;;;5047801;28;20049;-82
2021/05/18 05:53:14;;;;;;;28.33;20.58;;;11.20;99.90;;;;;;5055045;28;20024;-83
2021/05/18 05:55:40;;;;;;;30.73;21.42;;;11.20;99.90;;;;;;5048114;28;20027;-82
2021/05/18 05:58:06;;;;;;;31.02;23.35;;;11.20;99.90;;;;;;5041849;28;20456;-82
2021/05/18 06:00:32;;;;;;;39.28;28.98;;;11.20;99.90;;;;;;5058336;28;20031;-82
2021/05/18 06:02:58;;;;;;;40.08;28.70;;;11.20;99.90;;;;;;5051458;28;20107;-82
2021/05/18 06:05:24;;;;;;;43.33;31.40;;;11.30;99.90;;;;;;5057143;28;20486;-82
2021/05/18 06:07:49;;;;;;;42.03;29.50;;;11.30;99.90;;;;;;5074152;28;20032;-83
2021/05/18 06:10:21;;;;;;;49.10;32.70;;;11.30;99.90;;;;;;5040254;28;20021;-83
2021/05/18 06:42:46;;;;;;;45.88;29.52;;;11.60;99.90;;;;;;5053644;28;20052;-83
2021/05/18 06:47:56;;;;;;;40.05;25.73;;;11.60;99.90;;;;;;5059059;28;20087;-83
2021/05/18 06:50:28;;;;;;;34.85;24.75;;;11.60;99.90;;;;;;5056307;28;20020;-83
2021/05/18 06:52:56;;;;;;;42.22;28.00;;;11.60;99.90;;;;;;5074381;28;20016;-83
2021/05/18 06:55:31;;;;;;;42.22;29.10;;;11.60;99.90;;;;;;5047340;28;20047;-82
2021/05/18 06:58:14;;;;;;;38.83;26.52;;;11.70;99.90;;;;;;5069808;28;20025;-83
2021/05/18 07:00:43;;;;;;;49.85;30.15;;;11.70;99.90;;;;;;5046577;28;20385;-82
2021/05/18 07:03:12;;;;;;;38.78;26.05;;;11.70;99.90;;;;;;5056545;28;20013;-83
2021/05/18 07:06:06;;;;;;;39.78;27.15;;;11.80;99.90;;;;;;5057184;28;20114;-83
2021/05/18 07:11:00;;;;;;;50.58;31.85;;;11.90;99.90;;;;;;5055598;28;20047;-83
2021/05/18 07:13:26;;;;;;;59.90;37.00;;;11.90;99.90;;;;;;5051806;28;20119;-83
2021/05/18 07:15:52;;;;;;;44.67;30.80;;;11.90;99.90;;;;;;5062481;28;20116;-83
2021/05/18 07:18:17;;;;;;;46.03;30.05;;;11.80;99.90;;;;;;5064797;28;20033;-84
2021/05/18 07:20:43;;;;;;;51.55;34.17;;;11.80;99.90;;;;;;5043537;28;20071;-83
2021/05/18 07:23:13;;;;;;;49.33;30.92;;;11.80;99.90;;;;;;5045728;28;20033;-83
2021/05/18 07:25:39;;;;;;;41.55;28.15;;;11.80;99.90;;;;;;5045489;28;20167;-83
2021/05/18 07:28:08;;;;;;;41.15;26.08;;;11.70;99.90;;;;;;5019694;28;20607;-84
2021/05/18 07:30:39;;;;;;;30.80;21.55;;;11.60;99.90;;;;;;5067710;28;20075;-84
2021/05/18 07:33:05;;;;;;;25.30;17.50;;;11.50;99.90;;;;;;5036732;28;20387;-84
2021/05/18 07:35:31;;;;;;;23.05;15.48;;;11.30;99.90;;;;;;5040592;28;20020;-84
2021/05/18 07:37:57;;;;;;;20.05;13.07;;;11.20;99.90;;;;;;5052461;28;20024;-84
2021/05/18 07:40:23;;;;;;;16.75;11.43;;;11.20;99.90;;;;;;5039184;28;20027;-84
2021/05/18 07:42:51;;;;;;;15.73;10.80;;;11.10;99.90;;;;;;5067047;28;20029;-84
2021/05/18 07:45:25;;;;;;;14.95;9.65;;;11.10;99.90;;;;;;5070223;28;20027;-84
2021/05/18 07:47:57;;;;;;;15.85;9.88;;;11.00;99.90;;;;;;5039219;28;20291;-85
2021/05/18 07:50:33;;;;;;;13.85;9.68;;;11.00;99.90;;;;;;5041621;28;20392;-84
2021/05/18 08:06:39;;;;;;;18.95;12.88;;;11.10;99.90;;;;;;5073043;28;20047;-83
2021/05/18 08:09:05;;;;;;;19.63;13.30;;;11.20;99.90;;;;;;5071427;28;20025;-83
2021/05/18 08:11:31;;;;;;;21.55;15.07;;;11.20;99.90;;;;;;5057556;28;20470;-83
2021/05/18 08:13:58;;;;;;;21.17;14.20;;;11.20;99.90;;;;;;5029701;28;20029;-84
2021/05/18 08:16:52;;;;;;;20.42;14.13;;;11.30;99.90;;;;;;5052754;28;20033;-84
2021/05/18 10:22:07;;;;;;;11.68;7.85;;;13.20;99.90;;;;;;5045362;28;20190;-85
2021/05/18 10:35:48;;;;;;;5.88;3.75;;;13.30;99.90;;;;;;5049401;28;20497;-85
2021/05/18 10:38:42;;;;;;;6.15;3.50;;;13.20;99.90;;;;;;5029197;28;20386;-85
2021/05/18 10:41:23;;;;;;;4.53;3.28;;;13.20;99.90;;;;;;5044179;28;20032;-85
2021/05/18 10:44:02;;;;;;;7.93;3.75;;;13.20;99.90;;;;;;5046144;28;20048;-85
2021/05/18 10:46:34;;;;;;;5.15;3.30;;;13.10;99.90;;;;;;5016215;28;20129;-85
2021/05/18 10:49:10;;;;;;;5.07;3.38;;;13.00;99.90;;;;;;5026819;28;20025;-86
2021/05/18 10:51:59;;;;;;;5.50;3.70;;;13.00;99.90;;;;;;5036796;28;20465;-85
2021/05/18 10:54:32;;;;;;;6.20;4.30;;;13.00;99.90;;;;;;5050621;28;20021;-85
2021/05/18 10:57:02;;;;;;;7.38;3.92;;;13.00;99.90;;;;;;5053037;28;20041;-85
2021/05/18 10:59:40;;;;;;;6.18;4.57;;;13.00;99.90;;;;;;5056763;28;20385;-85
2021/05/18 11:02:12;;;;;;;7.25;4.95;;;13.10;99.90;;;;;;5057894;28;20036;-84
2021/05/18 11:04:52;;;;;;;6.25;4.47;;;13.20;99.90;;;;;;5057015;28;20041;-84
2021/05/18 11:07:28;;;;;;;7.40;4.47;;;13.30;99.90;;;;;;5039640;28;20039;-83
2021/05/18 11:09:54;;;;;;;7.70;5.28;;;13.50;99.90;;;;;;5052479;28;20024;-84
2021/05/18 11:12:22;;;;;;;8.77;6.07;;;13.60;99.90;;;;;;5070776;28;20110;-84
2021/05/18 11:14:51;;;;;;;7.35;5.32;;;13.70;99.90;;;;;;5052334;28;20020;-84
2021/05/18 11:17:18;;;;;;;9.07;5.65;;;13.80;99.90;;;;;;5072137;28;20070;-85
2021/05/18 11:19:53;;;;;;;10.00;6.80;;;13.90;99.90;;;;;;5057968;28;20029;-85
2021/05/18 11:23:19;;;;;;;11.25;7.60;;;13.90;99.90;;;;;;5054457;28;20032;-84
2021/05/18 11:25:07;;;;;;;13.18;8.13;;;14.00;99.90;;;;;;5055282;28;20441;-85
2021/05/18 11:27:33;;;;;;;11.63;8.43;;;14.00;99.90;;;;;;5046035;28;20040;-84
2021/05/18 11:29:59;;;;;;;15.15;9.10;;;14.10;99.90;;;;;;5068012;28;20020;-84
2021/05/18 11:32:25;;;;;;;13.02;9.45;;;14.10;99.90;;;;;;5009845;28;20111;-86
2021/05/18 11:35:03;;;;;;;14.00;9.00;;;14.10;99.90;;;;;;5071662;28;20055;-83
2021/05/18 11:37:31;;;;;;;12.00;8.50;;;14.00;99.90;;;;;;5047856;28;20024;-84
2021/05/18 11:40:12;;;;;;;12.52;8.68;;;14.00;99.90;;;;;;5072307;28;20059;-85
2021/05/18 11:42:38;;;;;;;14.35;9.55;;;14.00;99.90;;;;;;5074333;28;20037;-84
2021/05/18 11:45:09;;;;;;;13.88;9.98;;;14.00;99.90;;;;;;5055952;28;20424;-85
2021/05/18 11:47:34;;;;;;;14.60;9.75;;;14.00;99.90;;;;;;5052003;28;20075;-84
2021/05/18 11:50:00;;;;;;;14.73;10.60;;;14.00;99.90;;;;;;5053343;28;20033;-84
2021/05/18 11:52:35;;;;;;;13.45;9.18;;;14.00;99.90;;;;;;5035647;28;20580;-84
2021/05/18 11:55:00;;;;;;;10.23;6.90;;;14.00;99.90;;;;;;5029529;28;20036;-84
2021/05/18 11:57:26;;;;;;;11.15;7.13;;;14.10;99.90;;;;;;5023024;28;20347;-84
2021/05/18 11:59:52;;;;;;;13.95;8.60;;;14.20;99.90;;;;;;5037310;28;20036;-84
2021/05/18 12:02:21;;;;;;;13.88;10.13;;;14.20;99.90;;;;;;5035694;28;20112;-83
2021/05/18 12:04:48;;;;;;;10.60;8.27;;;14.20;99.90;;;;;;5035268;28;20045;-85
2021/05/18 12:07:13;;;;;;;9.82;7.03;;;14.20;99.90;;;;;;5001695;28;20033;-84
2021/05/18 12:09:41;;;;;;;11.18;7.88;;;14.20;99.90;;;;;;5039468;28;20122;-84
2021/05/18 12:12:09;;;;;;;10.85;7.47;;;14.20;99.90;;;;;;5030696;28;20021;-84
2021/05/18 12:14:41;;;;;;;9.65;6.57;;;14.20;99.90;;;;;;5025307;28;20086;-84
2021/05/18 12:17:06;;;;;;;8.85;6.32;;;14.20;99.90;;;;;;5046517;28;20098;-85
2021/05/18 12:19:32;;;;;;;10.32;6.65;;;14.20;99.90;;;;;;5041235;28;20478;-85
2021/05/18 12:21:58;;;;;;;8.30;5.32;;;14.20;99.90;;;;;;5057835;28;20058;-85
2021/05/18 12:24:26;;;;;;;9.75;4.97;;;14.20;99.90;;;;;;5052629;28;20033;-84
2021/05/18 12:27:00;;;;;;;5.97;3.95;;;14.30;99.90;;;;;;5031476;28;20029;-84
2021/05/18 12:29:32;;;;;;;5.03;3.08;;;14.40;99.90;;;;;;5031762;28;20450;-84
2021/05/18 12:32:16;;;;;;;5.72;3.47;;;14.50;99.90;;;;;;5041004;28;20027;-84
2021/05/18 12:34:42;;;;;;;7.80;3.50;;;14.50;99.90;;;;;;5057720;28;20032;-85
2021/05/18 12:37:08;;;;;;;3.97;3.00;;;14.60;99.90;;;;;;5058083;28;20354;-85
2021/05/18 12:39:41;;;;;;;5.18;3.75;;;14.70;99.90;;;;;;5037248;28;20029;-85
2021/05/18 12:42:09;;;;;;;6.30;4.03;;;14.70;99.90;;;;;;5057018;28;20032;-84
2021/05/18 12:44:50;;;;;;;5.28;3.40;;;14.70;99.90;;;;;;5024188;28;20492;-85
2021/05/18 12:47:32;;;;;;;5.50;3.85;;;14.80;99.90;;;;;;5052212;28;20501;-85
2021/05/18 12:49:58;;;;;;;;;;;14.90;99.90;;;;;;5060246;28;20025;-85
2021/05/18 12:52:33;;;;;;;5.70;4.15;;;14.90;99.90;;;;;;5053174;28;19904;-85
2021/05/18 12:54:58;;;;;;;6.75;4.30;;;15.00;99.90;;;;;;5026981;28;20013;-85
2021/05/18 12:57:26;;;;;;;5.55;3.97;;;15.10;99.90;;;;;;5054242;28;20101;-85
2021/05/18 13:00:06;;;;;;;5.40;4.10;;;15.20;99.90;;;;;;5067864;28;20114;-85
2021/05/18 13:02:41;;;;;;;6.85;4.53;;;15.20;99.90;;;;;;5068889;28;20035;-85
2021/05/18 13:05:12;;;;;;;7.22;5.22;;;15.30;99.90;;;;;;5076275;28;20051;-85
2021/05/18 13:07:38;;;;;;;;;;;15.40;99.90;;;;;;5046281;28;20399;-85
2021/05/18 13:10:36;;;;;;;6.25;4.90;;;15.40;99.90;;;;;;5038085;28;19908;-85
2021/05/18 13:13:03;;;;;;;8.63;6.15;;;15.50;99.90;;;;;;5057659;28;20028;-85
2021/05/18 13:15:28;;;;;;;7.20;4.78;;;15.60;99.90;;;;;;5051213;28;20347;-85
2021/05/18 13:18:00;;;;;;;5.50;3.85;;;15.60;99.90;;;;;;5051271;28;20023;-85
2021/05/18 13:20:54;;;;;;;5.43;3.60;;;15.60;99.90;;;;;;5043701;28;20025;-85
2021/05/18 13:28:35;;;;;;;6.53;3.75;;;15.80;99.90;;;;;;5061901;28;20596;-85
2021/05/18 13:31:01;;;;;;;7.00;4.38;;;15.90;99.90;;;;;;5057945;28;20501;-84
2021/05/18 13:33:27;;;;;;;5.90;4.05;;;15.90;99.90;;;;;;5057575;28;20063;-85
2021/05/18 13:35:53;;;;;;;5.93;4.25;;;15.90;99.90;;;;;;5050749;28;20025;-84
2021/05/18 13:38:19;;;;;;;5.72;3.92;;;16.00;99.90;;;;;;5051044;28;20530;-85
2021/05/18 13:40:45;;;;;;;6.50;4.00;;;16.10;99.90;;;;;;5074316;28;20378;-85
2021/05/18 13:43:11;;;;;;;6.53;4.35;;;16.20;99.90;;;;;;5041054;28;20055;-85
2021/05/18 13:45:36;;;;;;;6.57;4.28;;;16.20;99.90;;;;;;5057549;28;20032;-84
2021/05/18 13:48:02;;;;;;;5.68;4.38;;;16.20;99.90;;;;;;5054406;28;20025;-84
2021/05/18 13:50:29;;;;;;;7.53;4.78;;;16.20;99.90;;;;;;5052531;28;20031;-84
2021/05/18 13:52:55;;;;;;;7.07;4.97;;;16.20;99.90;;;;;;5043656;28;20465;-85
2021/05/18 13:55:22;;;;;;;7.00;4.57;;;16.20;99.90;;;;;;5040805;28;20020;-84
2021/05/18 13:57:47;;;;;;;7.43;5.55;;;16.20;99.90;;;;;;5040340;28;20101;-85
2021/05/18 14:00:15;;;;;;;7.97;5.50;;;16.10;99.90;;;;;;5015341;28;20478;-85
2021/05/18 14:02:42;;;;;;;6.38;4.97;;;16.10;99.90;;;;;;5049922;28;20040;-84
2021/05/18 14:05:13;;;;;;;10.57;5.97;;;16.10;99.90;;;;;;5050225;28;20055;-85
2021/05/18 14:08:22;;;;;;;6.45;4.25;;;16.20;99.90;;;;;;5037213;28;20533;-85
2021/05/18 14:11:07;;;;;;;6.82;4.93;;;16.20;99.90;;;;;;5030826;28;20033;-84
2021/05/18 14:13:36;;;;;;;5.72;4.20;;;16.20;99.90;;;;;;5074987;28;20013;-85
2021/05/18 14:16:06;;;;;;;8.05;3.90;;;16.20;99.90;;;;;;5057146;28;20085;-85
2021/05/18 14:18:32;;;;;;;6.90;4.78;;;16.20;99.90;;;;;;5074963;28;20397;-85
2021/05/18 14:21:00;;;;;;;6.25;4.28;;;16.20;99.90;;;;;;5056841;28;20543;-85
2021/05/18 14:23:29;;;;;;;4.90;3.60;;;16.10;99.90;;;;;;5040571;28;20040;-86
2021/05/18 14:25:55;;;;;;;5.90;3.00;;;16.10;98.00;;;;;;5071503;28;20489;-84
2021/05/18 14:28:21;;;;;;;4.25;2.88;;;16.10;99.70;;;;;;5054427;28;20111;-85
2021/05/18 14:30:48;;;;;;;4.32;2.90;;;16.00;98.60;;;;;;5033231;28;20021;-86
2021/05/18 14:33:14;;;;;;;4.55;2.88;;;16.00;99.80;;;;;;5050160;28;20040;-86
2021/05/18 14:35:40;;;;;;;5.18;3.40;;;16.00;99.50;;;;;;5057027;28;20020;-85
2021/05/18 14:38:25;;;;;;;5.88;3.25;;;15.90;98.70;;;;;;5073364;28;20028;-86
2021/05/18 14:56:38;;;;;;;3.22;2.38;;;15.80;98.70;;;;;;5020032;28;20447;-85
2021/05/18 14:59:04;;;;;;;3.63;2.15;;;15.80;97.40;;;;;;5059988;28;20036;-85
2021/05/18 15:01:31;;;;;;;4.53;1.92;;;15.80;97.10;;;;;;5063387;28;20013;-84
2021/05/18 15:03:57;;;;;;;3.17;1.90;;;15.70;94.90;;;;;;5029351;28;20035;-85
2021/05/18 15:06:23;;;;;;;3.58;2.20;;;15.70;96.60;;;;;;5050006;28;20040;-85
2021/05/18 15:08:48;;;;;;;4.00;2.10;;;15.70;97.30;;;;;;5042795;28;20124;-89
2021/05/18 15:11:14;;;;;;;4.28;1.75;;;15.70;97.30;;;;;;5039856;28;20025;-86
2021/05/18 15:13:40;;;;;;;2.70;1.58;;;15.70;97.00;;;;;;5039983;28;20419;-85
2021/05/18 15:16:06;;;;;;;3.63;1.90;;;15.70;97.20;;;;;;5045765;28;20501;-85
2021/05/18 15:18:33;;;;;;;4.00;1.70;;;15.60;97.20;;;;;;5040266;28;20032;-85
2021/05/18 15:21:00;;;;;;;3.08;1.70;;;15.60;98.10;;;;;;5056080;28;20013;-85
2021/05/18 15:23:28;;;;;;;2.17;1.60;;;15.70;98.20;;;;;;5057242;28;20032;-85
2021/05/18 15:25:54;;;;;;;3.15;2.00;;;15.70;98.40;;;;;;5035688;28;20059;-84
2021/05/18 15:28:20;;;;;;;4.32;1.88;;;15.70;98.30;;;;;;5047904;28;20025;-86
2021/05/18 15:30:46;;;;;;;2.90;1.63;;;15.70;96.80;;;;;;5039202;28;20036;-86
2021/05/18 15:33:12;;;;;;;4.10;2.10;;;15.80;97.90;;;;;;5004185;28;20113;-86
2021/05/18 15:35:37;;;;;;;3.58;1.48;;;15.80;98.00;;;;;;5043465;28;20060;-87
2021/05/18 15:38:03;;;;;;;1.95;1.48;;;15.80;98.10;;;;;;5037051;28;20071;-86
2021/05/18 15:40:30;;;;;;;2.30;1.50;;;15.80;95.90;;;;;;5057296;28;20052;-84
2021/05/18 15:42:56;;;;;;;2.40;1.48;;;15.80;95.30;;;;;;5055866;28;20017;-85
2021/05/18 15:45:22;;;;;;;2.38;1.27;;;15.80;95.70;;;;;;5015771;28;20037;-85
2021/05/18 15:47:47;;;;;;;3.65;1.38;;;15.80;96.70;;;;;;5037760;28;20027;-86
2021/05/18 15:50:14;;;;;;;3.05;1.48;;;15.80;95.50;;;;;;5022766;28;20021;-85
2021/05/18 15:52:40;;;;;;;1.38;1.00;;;15.70;95.90;;;;;;5026520;28;20028;-86
2021/05/18 15:55:08;;;;;;;2.17;1.10;;;15.80;96.50;;;;;;5023546;28;20028;-87
2021/05/18 15:57:34;;;;;;;1.55;0.93;;;15.80;94.50;;;;;;5035687;28;20035;-85
2021/05/18 16:00:00;;;;;;;2.03;0.70;;;15.80;91.90;;;;;;5051937;28;20033;-85
2021/05/18 16:02:26;;;;;;;1.90;0.80;;;15.90;92.70;;;;;;5036928;28;20057;-86
2021/05/18 16:04:52;;;;;;;0.93;0.80;;;15.90;93.20;;;;;;5060831;23;20048;-85
2021/05/18 16:07:19;;;;;;;1.35;0.80;;;16.00;93.10;;;;;;5019425;28;20477;-85
2021/05/18 16:09:44;;;;;;;3.83;0.90;;;16.10;94.00;;;;;;5038371;28;20471;-85
2021/05/18 16:12:11;;;;;;;0.93;0.60;;;16.20;92.60;;;;;;5035992;28;20112;-85
2021/05/18 16:14:37;;;;;;;2.78;0.85;;;16.30;93.70;;;;;;5053293;28;20056;-84
2021/05/18 16:17:04;;;;;;;1.65;1.00;;;16.40;92.30;;;;;;5013405;28;20029;-86
2021/05/18 16:19:30;;;;;;;1.40;1.00;;;16.50;93.70;;;;;;5019505;28;20497;-85
2021/05/18 16:21:56;;;;;;;2.38;1.00;;;16.50;93.60;;;;;;5003253;28;20033;-85
2021/05/18 16:24:24;;;;;;;1.48;0.98;;;16.60;91.60;;;;;;5036015;28;20064;-86
2021/05/18 16:26:53;;;;;;;1.20;0.70;;;16.70;92.30;;;;;;5060931;28;20021;-83
2021/05/18 16:29:21;;;;;;;2.85;1.13;;;16.70;92.70;;;;;;5053213;28;20079;-83
2021/05/18 16:31:47;;;;;;;1.85;0.95;;;16.80;93.00;;;;;;5035475;28;20013;-85
2021/05/18 16:34:13;;;;;;;2.60;1.10;;;16.80;89.20;;;;;;5018938;28;20119;-85
2021/05/18 16:36:39;;;;;;;2.05;0.95;;;16.80;91.60;;;;;;5053567;28;20040;-84
2021/05/18 16:39:07;;;;;;;0.95;0.65;;;16.90;92.20;;;;;;5036106;28;20054;-83
2021/05/18 16:41:40;;;;;;;2.08;0.90;;;16.90;92.70;;;;;;5055214;28;20020;-84
2021/05/18 16:44:08;;;;;;;1.40;0.80;;;16.90;91.30;;;;;;5038039;28;20090;-84
2021/05/18 16:46:34;;;;;;;2.17;1.00;;;17.00;91.50;;;;;;5017734;28;20044;-83
2021/05/18 16:49:00;;;;;;;2.08;1.02;;;17.00;92.10;;;;;;5048082;28;20160;-83
2021/05/18 16:51:26;;;;;;;3.60;1.23;;;17.00;88.60;;;;;;5053073;28;20024;-83
2021/05/18 16:53:53;;;;;;;3.03;1.00;;;17.10;89.10;;;;;;5002029;28;20021;-84
2021/05/18 16:56:20;;;;;;;1.33;0.73;;;17.10;89.10;;;;;;5052013;28;20063;-83
2021/05/18 16:58:45;;;;;;;3.03;1.00;;;17.10;90.50;;;;;;5053294;28;20029;-86
2021/05/18 17:01:11;;;;;;;1.08;0.80;;;17.10;89.10;;;;;;5031012;28;20029;-85
2021/05/18 17:03:37;;;;;;;2.50;1.20;;;17.10;89.90;;;;;;5020346;28;20062;-85
2021/05/18 17:06:02;;;;;;;2.20;1.00;;;17.10;87.30;;;;;;5032050;28;20049;-84
2021/05/18 17:08:28;;;;;;;1.35;0.82;;;17.10;86.20;;;;;;5015579;28;20029;-85
2021/05/18 17:10:55;;;;;;;3.58;1.38;;;17.10;90.60;;;;;;5015600;28;20154;-85
2021/05/18 17:13:21;;;;;;;2.55;1.20;;;17.00;87.60;;;;;;5035286;28;20053;-85
2021/05/18 17:15:47;;;;;;;1.63;0.80;;;17.00;86.70;;;;;;5032043;28;20359;-84
2021/05/18 17:18:13;;;;;;;1.90;0.80;;;17.00;86.80;;;;;;5019324;28;20081;-85
2021/05/18 17:20:39;;;;;;;2.85;0.90;;;16.90;88.90;;;;;;5045626;28;20040;-85
2021/05/18 17:23:05;;;;;;;2.40;0.90;;;16.90;87.90;;;;;;5021370;28;20093;-85
2021/05/18 17:25:32;;;;;;;2.47;0.88;;;16.80;85.70;;;;;;5035276;28;20029;-85
2021/05/18 17:27:58;;;;;;;1.95;0.85;;;16.70;82.80;;;;;;5040210;28;20026;-86
2021/05/18 17:30:26;;;;;;;2.88;0.70;;;16.70;85.90;;;;;;5039571;28;20087;-84
2021/05/18 17:32:53;;;;;;;1.58;0.80;;;16.70;86.40;;;;;;5037778;28;20021;-86
2021/05/18 17:35:20;;;;;;;1.77;0.80;;;16.60;84.30;;;;;;5038008;28;20045;-85
2021/05/18 17:37:46;;;;;;;2.30;0.77;;;16.50;85.60;;;;;;5026563;28;20024;-85
2021/05/18 17:40:12;;;;;;;1.02;0.65;;;16.50;85.20;;;;;;5039509;28;20128;-85
2021/05/18 17:42:39;;;;;;;0.88;0.57;;;16.40;86.00;;;;;;5031527;28;20018;-85
2021/05/18 17:45:07;;;;;;;2.13;0.63;;;16.40;84.50;;;;;;5037623;28;20021;-86
2021/05/18 17:47:33;;;;;;;1.60;0.60;;;16.30;83.00;;;;;;5053457;28;20025;-84
2021/05/18 17:50:00;;;;;;;1.73;0.73;;;16.30;83.10;;;;;;5042927;28;20021;-87
2021/05/18 17:52:26;;;;;;;2.55;1.00;;;16.30;86.50;;;;;;5042014;28;20096;-85
2021/05/18 17:54:53;;;;;;;1.30;0.73;;;16.20;85.40;;;;;;5041577;28;20029;-84